Time;durP1;ratioP1;P1;durP2;ratioP2;P2;SDS_P1;SDS_P2;PMS_P1;PMS_P2;Temp;Humidity;BMP_temperature;BMP_pressure;BME280_temperature;BME280_humidity;BME280_pressure;Samples;Min_cycle;Max_cycle;Signal;HPM_P1;HPM_P2
2022/10/28 00:01:14;;;;;;;0.35;0.35;;;;;;;;;;7400344;19;20153;-91
2022/10/28 00:03:41;;;;;;;0.22;0.22;;;;;;;;;;7401669;19;20242;-90
2022/10/28 00:06:12;;;;;;;0.30;0.30;;;;;;;;;;7404814;19;20140;-89
2022/10/28 00:08:38;;;;;;;0.68;0.68;;;;;;;;;;7399727;19;20537;-89
2022/10/28 00:11:05;;;;;;;0.30;0.30;;;;;;;;;;7398482;19;20121;-89
2022/10/28 00:13:30;;;;;;;0.30;0.30;;;;;;;;;;7397616;19;20602;-88
2022/10/28 00:16:06;;;;;;;0.30;0.30;;;;;;;;;;7396924;19;20138;-89
2022/10/28 00:18:31;;;;;;;0.52;0.52;;;;;;;;;;7396183;19;20155;-90
2022/10/28 00:21:11;;;;;;;0.32;0.32;;;;;;;;;;7397178;19;20693;-88
2022/10/28 00:23:36;;;;;;;0.30;0.30;;;;;;;;;;7396940;19;20109;-89
2022/10/28 00:26:12;;;;;;;0.47;0.47;;;;;;;;;;7398938;19;20115;-89
2022/10/28 00:28:48;;;;;;;0.30;0.30;;;;;;;;;;7394701;19;20179;-92
2022/10/28 00:31:26;;;;;;;0.47;0.47;;;;;;;;;;7398000;19;20170;-90
2022/10/28 00:33:52;;;;;;;0.30;0.30;;;;;;;;;;7398298;19;20132;-92
2022/10/28 00:36:23;;;;;;;0.30;0.30;;;;;;;;;;7398001;19;20153;-91
2022/10/28 00:38:51;;;;;;;0.20;0.20;;;;;;;;;;7395167;19;20267;-91
2022/10/28 00:41:19;;;;;;;0.40;0.40;;;;;;;;;;7397525;19;20149;-90
2022/10/28 00:43:49;;;;;;;0.30;0.30;;;;;;;;;;7398323;19;20133;-91
2022/10/28 00:46:25;;;;;;;0.30;0.30;;;;;;;;;;7396598;19;20915;-91
2022/10/28 00:49:18;;;;;;;0.40;0.40;;;;;;;;;;7393735;19;20179;-91
2022/10/28 00:51:46;;;;;;;0.88;0.63;;;;;;;;;;7396113;19;20230;-92
2022/10/28 00:54:12;;;;;;;0.40;0.40;;;;;;;;;;7394340;19;20160;-91
2022/10/28 00:56:42;;;;;;;0.40;0.40;;;;;;;;;;7393644;19;20148;-90
2022/10/28 00:59:15;;;;;;;0.30;0.30;;;;;;;;;;7393514;19;20152;-91
2022/10/28 01:01:41;;;;;;;0.40;0.40;;;;;;;;;;7395980;19;20166;-90
2022/10/28 01:04:07;;;;;;;0.30;0.30;;;;;;;;;;7396611;19;20145;-91
2022/10/28 01:06:32;;;;;;;0.30;0.30;;;;;;;;;;7396084;19;20161;-93
2022/10/28 01:08:57;;;;;;;0.30;0.30;;;;;;;;;;7395667;19;20604;-91
2022/10/28 01:11:26;;;;;;;0.40;0.40;;;;;;;;;;7393893;19;20140;-91
2022/10/28 01:14:10;;;;;;;0.37;0.37;;;;;;;;;;7396863;19;20137;-91
2022/10/28 01:17:03;;;;;;;0.30;0.30;;;;;;;;;;7395342;19;20625;-92
2022/10/28 01:19:41;;;;;;;0.30;0.30;;;;;;;;;;7395930;19;20144;-90
2022/10/28 01:23:00;;;;;;;0.30;0.30;;;;;;;;;;7394820;19;20137;-90
2022/10/28 01:26:26;;;;;;;0.40;0.40;;;;;;;;;;7393986;19;20145;-90
2022/10/28 01:29:03;;;;;;;0.30;0.30;;;;;;;;;;7391148;19;20542;-91
2022/10/28 01:31:43;;;;;;;0.30;0.30;;;;;;;;;;7394903;19;20124;-92
2022/10/28 01:34:14;;;;;;;0.30;0.30;;;;;;;;;;7392312;19;20137;-91
2022/10/28 01:37:01;;;;;;;0.30;0.30;;;;;;;;;;7393890;19;20145;-91
2022/10/28 01:39:38;;;;;;;0.40;0.40;;;;;;;;;;7396578;19;20149;-89
2022/10/28 01:42:09;;;;;;;0.30;0.30;;;;;;;;;;7396724;19;20465;-90
2022/10/28 01:44:46;;;;;;;0.30;0.30;;;;;;;;;;7396445;19;20148;-91
2022/10/28 01:47:19;;;;;;;0.20;0.20;;;;;;;;;;7395597;19;20639;-91
2022/10/28 01:49:50;;;;;;;0.30;0.30;;;;;;;;;;7395453;19;20128;-90
2022/10/28 01:52:19;;;;;;;0.30;0.30;;;;;;;;;;7406398;19;20200;-91
2022/10/28 01:54:49;;;;;;;0.43;0.43;;;;;;;;;;7408968;19;20766;-89
2022/10/28 01:57:15;;;;;;;0.30;0.30;;;;;;;;;;7405146;19;20306;-90
2022/10/28 01:59:40;;;;;;;0.30;0.30;;;;;;;;;;7410897;19;20156;-90
2022/10/28 02:02:06;;;;;;;0.30;0.30;;;;;;;;;;7408011;19;20658;-90
2022/10/28 02:04:31;;;;;;;0.40;0.40;;;;;;;;;;7410029;19;20144;-89
2022/10/28 02:06:58;;;;;;;0.30;0.30;;;;;;;;;;7409411;19;20168;-90
2022/10/28 02:09:36;;;;;;;0.30;0.30;;;;;;;;;;7410450;19;20144;-89
2022/10/28 02:12:19;;;;;;;0.40;0.40;;;;;;;;;;7409943;19;20156;-89
2022/10/28 02:14:50;;;;;;;0.32;0.32;;;;;;;;;;7409097;19;20148;-90
2022/10/28 02:17:37;;;;;;;0.30;0.30;;;;;;;;;;7409087;19;20141;-90
2022/10/28 02:20:29;;;;;;;0.30;0.30;;;;;;;;;;7408709;19;20216;-90
2022/10/28 02:23:05;;;;;;;0.30;0.30;;;;;;;;;;7406471;19;20152;-89
2022/10/28 02:25:39;;;;;;;0.30;0.30;;;;;;;;;;7407250;19;20148;-89
2022/10/28 02:28:07;;;;;;;0.30;0.30;;;;;;;;;;7407822;19;20164;-90
2022/10/28 02:30:45;;;;;;;0.40;0.40;;;;;;;;;;7409891;19;20133;-90
2022/10/28 02:33:15;;;;;;;0.40;0.40;;;;;;;;;;7408805;19;20136;-89
2022/10/28 02:35:49;;;;;;;0.30;0.30;;;;;;;;;;7408548;19;20152;-90
2022/10/28 02:38:26;;;;;;;0.60;0.60;;;;;;;;;;7406613;19;20176;-90
2022/10/28 02:40:55;;;;;;;0.30;0.30;;;;;;;;;;7408173;19;20211;-89
2022/10/28 02:43:22;;;;;;;0.30;0.30;;;;;;;;;;7408100;19;20200;-91
2022/10/28 02:45:50;;;;;;;0.33;0.33;;;;;;;;;;7408721;19;20153;-90
2022/10/28 02:48:20;;;;;;;0.30;0.30;;;;;;;;;;7406582;19;20640;-90
2022/10/28 02:50:52;;;;;;;0.63;0.63;;;;;;;;;;7406869;19;20148;-91
2022/10/28 02:53:25;;;;;;;0.30;0.30;;;;;;;;;;7408258;19;20149;-90
2022/10/28 02:55:52;;;;;;;0.47;0.47;;;;;;;;;;7407073;19;20152;-90
2022/10/28 02:58:18;;;;;;;0.83;0.70;;;;;;;;;;7406599;19;20182;-90
2022/10/28 03:00:44;;;;;;;2.00;0.40;;;;;;;;;;7408406;19;20145;-90
2022/10/28 03:03:09;;;;;;;0.30;0.30;;;;;;;;;;7400070;19;20157;-91
2022/10/28 03:05:35;;;;;;;0.40;0.40;;;;;;;;;;7402288;19;20133;-92
2022/10/28 03:08:00;;;;;;;0.30;0.30;;;;;;;;;;7399583;19;20182;-91
2022/10/28 03:10:25;;;;;;;0.40;0.40;;;;;;;;;;7400066;19;20239;-89
2022/10/28 03:12:51;;;;;;;0.30;0.30;;;;;;;;;;7399855;19;20136;-91
2022/10/28 03:15:16;;;;;;;0.20;0.20;;;;;;;;;;7399583;19;20133;-90
2022/10/28 03:17:41;;;;;;;0.27;0.27;;;;;;;;;;7399944;19;20176;-90
2022/10/28 03:20:07;;;;;;;0.63;0.63;;;;;;;;;;7400262;19;20159;-91
2022/10/28 03:22:32;;;;;;;0.33;0.33;;;;;;;;;;7400371;19;20196;-91
2022/10/28 03:24:58;;;;;;;0.30;0.30;;;;;;;;;;7399709;19;20144;-91
2022/10/28 03:27:23;;;;;;;0.30;0.30;;;;;;;;;;7399562;19;20172;-92
2022/10/28 03:29:48;;;;;;;1.17;0.73;;;;;;;;;;7400800;19;20152;-91
2022/10/28 03:32:14;;;;;;;0.40;0.40;;;;;;;;;;7400034;19;20220;-91
2022/10/28 03:34:39;;;;;;;0.40;0.40;;;;;;;;;;7402052;19;20529;-89
2022/10/28 03:37:04;;;;;;;0.63;0.63;;;;;;;;;;7398522;19;20520;-90
2022/10/28 03:39:29;;;;;;;0.20;0.20;;;;;;;;;;7399422;19;20224;-89
2022/10/28 03:41:55;;;;;;;0.30;0.30;;;;;;;;;;7400522;19;20147;-90
2022/10/28 03:44:20;;;;;;;0.40;0.40;;;;;;;;;;7401463;19;20240;-91
2022/10/28 03:46:45;;;;;;;0.90;0.90;;;;;;;;;;7398746;19;20135;-90
2022/10/28 03:49:11;;;;;;;0.40;0.40;;;;;;;;;;7400161;19;20231;-90
2022/10/28 03:51:36;;;;;;;0.37;0.37;;;;;;;;;;7396648;19;20163;-91
2022/10/28 03:54:01;;;;;;;0.30;0.30;;;;;;;;;;7400636;19;20151;-90
2022/10/28 03:56:26;;;;;;;0.40;0.40;;;;;;;;;;7399748;19;20156;-90
2022/10/28 03:58:52;;;;;;;0.23;0.23;;;;;;;;;;7399858;19;20183;-90
2022/10/28 04:01:17;;;;;;;0.50;0.50;;;;;;;;;;7398719;19;20904;-90
2022/10/28 04:03:42;;;;;;;0.20;0.20;;;;;;;;;;7399847;19;20152;-89
2022/10/28 04:06:09;;;;;;;0.30;0.30;;;;;;;;;;7400921;19;20152;-89
2022/10/28 04:08:34;;;;;;;0.40;0.40;;;;;;;;;;7398947;19;20191;-91
2022/10/28 04:11:00;;;;;;;0.30;0.30;;;;;;;;;;7400466;19;20140;-89
2022/10/28 04:13:25;;;;;;;0.70;0.70;;;;;;;;;;7398318;19;20149;-89
2022/10/28 04:15:50;;;;;;;0.40;0.40;;;;;;;;;;7397319;19;20137;-88
2022/10/28 04:18:16;;;;;;;0.50;0.50;;;;;;;;;;7400139;19;20189;-88
2022/10/28 04:20:41;;;;;;;0.40;0.40;;;;;;;;;;7397930;19;20530;-89
2022/10/28 04:23:07;;;;;;;0.30;0.30;;;;;;;;;;7399426;19;20137;-90
2022/10/28 04:25:33;;;;;;;0.37;0.37;;;;;;;;;;7399253;19;20153;-91
2022/10/28 04:27:58;;;;;;;0.47;0.47;;;;;;;;;;7397376;19;20163;-90
2022/10/28 04:30:23;;;;;;;0.30;0.30;;;;;;;;;;7397205;19;20586;-90
2022/10/28 04:32:49;;;;;;;0.27;0.27;;;;;;;;;;7398913;19;20163;-89
2022/10/28 04:35:14;;;;;;;2.10;0.63;;;;;;;;;;7398553;19;20831;-89
2022/10/28 04:37:40;;;;;;;0.20;0.20;;;;;;;;;;7397368;19;20171;-90
2022/10/28 04:40:09;;;;;;;0.30;0.30;;;;;;;;;;7397271;19;20204;-94
2022/10/28 04:42:34;;;;;;;0.20;0.20;;;;;;;;;;7397073;19;20153;-90
2022/10/28 04:44:59;;;;;;;0.30;0.30;;;;;;;;;;7396761;19;20502;-91
2022/10/28 04:47:25;;;;;;;0.33;0.33;;;;;;;;;;7397954;19;20180;-89
2022/10/28 04:49:50;;;;;;;0.30;0.30;;;;;;;;;;7400041;19;20136;-90
2022/10/28 04:52:15;;;;;;;0.40;0.40;;;;;;;;;;7399505;19;20540;-90
2022/10/28 04:54:41;;;;;;;0.40;0.40;;;;;;;;;;7399015;19;20204;-88
2022/10/28 04:57:06;;;;;;;0.30;0.30;;;;;;;;;;7398610;19;20148;-89
2022/10/28 04:59:32;;;;;;;0.40;0.40;;;;;;;;;;7397800;19;20147;-90
2022/10/28 05:01:57;;;;;;;0.30;0.30;;;;;;;;;;7404593;19;20163;-91
2022/10/28 05:04:22;;;;;;;0.50;0.50;;;;;;;;;;7410785;19;20132;-92
2022/10/28 05:06:48;;;;;;;0.30;0.30;;;;;;;;;;7410543;19;20145;-92
2022/10/28 05:09:13;;;;;;;0.30;0.30;;;;;;;;;;7428946;19;20129;-94
2022/10/28 05:11:38;;;;;;;0.30;0.30;;;;;;;;;;7430319;19;20151;-92
2022/10/28 05:14:04;;;;;;;0.47;0.47;;;;;;;;;;7431609;19;20144;-93
2022/10/28 05:16:29;;;;;;;0.30;0.30;;;;;;;;;;7423740;19;20610;-90
2022/10/28 05:18:55;;;;;;;0.30;0.30;;;;;;;;;;7398805;19;20145;-90
2022/10/28 05:21:20;;;;;;;0.30;0.30;;;;;;;;;;7398444;19;20646;-90
2022/10/28 05:23:46;;;;;;;0.30;0.30;;;;;;;;;;7397945;19;20156;-90
2022/10/28 05:26:11;;;;;;;0.30;0.30;;;;;;;;;;7393371;19;20129;-87
2022/10/28 05:28:37;;;;;;;0.50;0.50;;;;;;;;;;7413727;19;20169;-93
2022/10/28 05:31:02;;;;;;;0.30;0.30;;;;;;;;;;7425636;19;20121;-91
2022/10/28 05:33:27;;;;;;;0.40;0.40;;;;;;;;;;7401274;19;20515;-90
2022/10/28 05:35:53;;;;;;;0.50;0.50;;;;;;;;;;7411334;19;20175;-92
2022/10/28 05:38:18;;;;;;;0.40;0.40;;;;;;;;;;7399894;19;20176;-91
2022/10/28 05:40:45;;;;;;;0.33;0.33;;;;;;;;;;7401573;19;20149;-93
2022/10/28 05:43:10;;;;;;;0.50;0.50;;;;;;;;;;7397764;19;20149;-89
2022/10/28 05:45:36;;;;;;;0.30;0.30;;;;;;;;;;7401652;19;20140;-89
2022/10/28 05:48:01;;;;;;;0.30;0.30;;;;;;;;;;7398818;19;20194;-88
2022/10/28 05:50:27;;;;;;;0.57;0.37;;;;;;;;;;7397246;19;20620;-90
2022/10/28 05:52:54;;;;;;;0.47;0.47;;;;;;;;;;7393844;19;20751;-90
2022/10/28 05:55:21;;;;;;;0.40;0.40;;;;;;;;;;7395966;19;20159;-90
2022/10/28 05:57:48;;;;;;;0.30;0.30;;;;;;;;;;7395735;19;20196;-90
2022/10/28 06:00:14;;;;;;;0.20;0.20;;;;;;;;;;7396290;19;20163;-91
2022/10/28 06:02:40;;;;;;;0.60;0.60;;;;;;;;;;7397520;19;20152;-88
2022/10/28 06:05:07;;;;;;;0.40;0.40;;;;;;;;;;7397760;19;20180;-88
2022/10/28 06:07:33;;;;;;;0.30;0.30;;;;;;;;;;7389289;19;20210;-90
2022/10/28 06:09:59;;;;;;;0.30;0.30;;;;;;;;;;7391843;19;20149;-88
2022/10/28 06:12:24;;;;;;;1.73;0.40;;;;;;;;;;7395278;19;20156;-92
2022/10/28 06:14:49;;;;;;;0.30;0.30;;;;;;;;;;7425528;19;20145;-91
2022/10/28 06:17:15;;;;;;;0.30;0.30;;;;;;;;;;7424963;19;20176;-93
2022/10/28 06:19:40;;;;;;;0.30;0.30;;;;;;;;;;7424983;19;20141;-94
2022/10/28 06:22:05;;;;;;;0.40;0.40;;;;;;;;;;7426082;19;20148;-94
2022/10/28 06:24:31;;;;;;;0.30;0.30;;;;;;;;;;7424989;19;20160;-94
2022/10/28 06:26:56;;;;;;;0.30;0.30;;;;;;;;;;7402950;19;20153;-90
2022/10/28 06:29:21;;;;;;;0.30;0.30;;;;;;;;;;7397780;19;20148;-88
2022/10/28 06:31:46;;;;;;;0.30;0.30;;;;;;;;;;7394973;19;20638;-89
2022/10/28 06:34:12;;;;;;;1.20;0.43;;;;;;;;;;7396474;19;20149;-90
2022/10/28 06:36:37;;;;;;;0.40;0.40;;;;;;;;;;7393123;19;20489;-90
2022/10/28 06:39:03;;;;;;;0.50;0.50;;;;;;;;;;7402487;19;20160;-91
2022/10/28 06:41:29;;;;;;;0.30;0.30;;;;;;;;;;7399907;19;20160;-91
2022/10/28 06:43:54;;;;;;;0.50;0.50;;;;;;;;;;7402529;19;20149;-90
2022/10/28 06:46:19;;;;;;;0.30;0.30;;;;;;;;;;7402769;19;20165;-90
2022/10/28 06:48:44;;;;;;;0.22;0.22;;;;;;;;;;7398452;19;20166;-89
2022/10/28 06:51:10;;;;;;;0.30;0.30;;;;;;;;;;7401772;19;20144;-90
2022/10/28 06:53:35;;;;;;;0.35;0.35;;;;;;;;;;7403023;19;20159;-90
2022/10/28 06:56:00;;;;;;;0.40;0.40;;;;;;;;;;7401995;19;20157;-90
2022/10/28 06:58:26;;;;;;;0.30;0.30;;;;;;;;;;7401863;19;20153;-92
2022/10/28 07:00:52;;;;;;;0.30;0.30;;;;;;;;;;7400740;19;20138;-91
2022/10/28 07:03:20;;;;;;;2.20;2.03;;;;;;;;;;7403809;19;20129;-88
2022/10/28 07:05:46;;;;;;;0.30;0.30;;;;;;;;;;7403588;19;20141;-90
2022/10/28 07:08:13;;;;;;;0.20;0.20;;;;;;;;;;7402637;19;20571;-88
2022/10/28 07:10:39;;;;;;;0.30;0.30;;;;;;;;;;7401933;19;20159;-90
2022/10/28 07:13:05;;;;;;;0.77;0.77;;;;;;;;;;7403296;19;20124;-88
2022/10/28 07:15:31;;;;;;;0.30;0.30;;;;;;;;;;7405081;19;20532;-89
2022/10/28 07:17:57;;;;;;;0.30;0.30;;;;;;;;;;7403610;19;20599;-91
2022/10/28 07:20:26;;;;;;;0.35;0.35;;;;;;;;;;7404580;19;20148;-88
2022/10/28 07:22:58;;;;;;;0.30;0.30;;;;;;;;;;7401933;19;20164;-89
2022/10/28 07:25:25;;;;;;;0.30;0.30;;;;;;;;;;7405224;19;20168;-88
2022/10/28 07:27:50;;;;;;;0.20;0.20;;;;;;;;;;7402915;19;20178;-89
2022/10/28 07:30:16;;;;;;;0.30;0.30;;;;;;;;;;7399876;19;20160;-88
2022/10/28 07:32:41;;;;;;;0.47;0.47;;;;;;;;;;7400698;19;20154;-89
2022/10/28 07:35:07;;;;;;;0.30;0.30;;;;;;;;;;7401360;19;20144;-89
2022/10/28 07:37:32;;;;;;;0.30;0.30;;;;;;;;;;7401351;19;20172;-88
2022/10/28 07:39:57;;;;;;;0.30;0.30;;;;;;;;;;7406017;19;20148;-89
2022/10/28 07:42:22;;;;;;;1.17;0.52;;;;;;;;;;7401439;19;20516;-89
2022/10/28 07:44:48;;;;;;;0.40;0.40;;;;;;;;;;7396958;19;20637;-88
2022/10/28 07:47:13;;;;;;;1.20;1.20;;;;;;;;;;7399651;19;20173;-89
2022/10/28 07:49:38;;;;;;;0.60;0.60;;;;;;;;;;7395967;19;20516;-87
2022/10/28 07:52:04;;;;;;;0.30;0.30;;;;;;;;;;7399383;19;20148;-88
2022/10/28 07:54:30;;;;;;;0.30;0.30;;;;;;;;;;7400186;19;20121;-88
2022/10/28 07:56:56;;;;;;;0.30;0.30;;;;;;;;;;7386689;19;20181;-88
2022/10/28 07:59:23;;;;;;;0.30;0.30;;;;;;;;;;7392906;19;20723;-87
2022/10/28 08:01:48;;;;;;;0.30;0.30;;;;;;;;;;7391122;19;20530;-85
2022/10/28 08:04:14;;;;;;;0.20;0.20;;;;;;;;;;7393053;19;20166;-84
2022/10/28 08:06:39;;;;;;;0.30;0.30;;;;;;;;;;7389166;19;20155;-85
2022/10/28 08:09:04;;;;;;;0.35;0.35;;;;;;;;;;7395228;19;20141;-90
2022/10/28 08:11:30;;;;;;;0.30;0.30;;;;;;;;;;7383329;19;20125;-89
2022/10/28 08:13:56;;;;;;;0.30;0.30;;;;;;;;;;7397472;19;20132;-89
2022/10/28 08:16:22;;;;;;;0.30;0.30;;;;;;;;;;7391364;19;23107;-91
2022/10/28 08:18:47;;;;;;;0.52;0.52;;;;;;;;;;7392504;19;20168;-88
2022/10/28 08:21:13;;;;;;;0.20;0.20;;;;;;;;;;7391822;19;20148;-89
2022/10/28 08:23:40;;;;;;;0.22;0.22;;;;;;;;;;7396122;19;20133;-88
2022/10/28 08:26:05;;;;;;;0.52;0.52;;;;;;;;;;7394912;19;20228;-88
2022/10/28 08:28:30;;;;;;;0.30;0.30;;;;;;;;;;7391972;19;20157;-91
2022/10/28 08:31:03;;;;;;;0.22;0.22;;;;;;;;;;7392984;19;20534;-90
2022/10/28 08:33:31;;;;;;;0.30;0.30;;;;;;;;;;7391459;19;20133;-89
2022/10/28 08:35:57;;;;;;;0.50;0.50;;;;;;;;;;7394860;19;20129;-88
2022/10/28 08:38:22;;;;;;;0.50;0.50;;;;;;;;;;7393460;19;20172;-89
2022/10/28 08:41:12;;;;;;;0.57;0.57;;;;;;;;;;7401007;19;20183;-88
2022/10/28 08:44:15;;;;;;;0.40;0.40;;;;;;;;;;7404234;19;20145;-89
2022/10/28 08:46:52;;;;;;;0.40;0.40;;;;;;;;;;7404828;19;20109;-90
2022/10/28 08:49:20;;;;;;;0.60;0.60;;;;;;;;;;7396778;19;20125;-89
2022/10/28 08:51:57;;;;;;;0.30;0.30;;;;;;;;;;7400164;19;20129;-89
2022/10/28 08:54:26;;;;;;;0.30;0.30;;;;;;;;;;7398325;19;20112;-89
2022/10/28 08:56:53;;;;;;;0.30;0.30;;;;;;;;;;7396508;19;20171;-90
2022/10/28 08:59:26;;;;;;;0.80;0.68;;;;;;;;;;7395417;19;20689;-91
2022/10/28 09:02:22;;;;;;;0.30;0.30;;;;;;;;;;7394019;19;20509;-91
2022/10/28 09:05:07;;;;;;;0.30;0.30;;;;;;;;;;7395407;19;20677;-91
2022/10/28 09:07:34;;;;;;;0.20;0.20;;;;;;;;;;7394775;19;20176;-93
2022/10/28 09:09:59;;;;;;;0.30;0.30;;;;;;;;;;7399176;19;20172;-89
2022/10/28 09:12:40;;;;;;;0.20;0.20;;;;;;;;;;7401408;19;20501;-90
2022/10/28 09:15:23;;;;;;;0.30;0.30;;;;;;;;;;7401540;19;20121;-90
2022/10/28 09:17:56;;;;;;;0.30;0.30;;;;;;;;;;7398987;19;20169;-89
2022/10/28 09:20:22;;;;;;;0.30;0.30;;;;;;;;;;7402084;19;20133;-89
2022/10/28 09:22:56;;;;;;;0.30;0.30;;;;;;;;;;7402376;19;20661;-89
2022/10/28 09:25:47;;;;;;;0.65;0.65;;;;;;;;;;7396617;19;20140;-90
2022/10/28 09:28:21;;;;;;;0.30;0.30;;;;;;;;;;7395585;19;20912;-90
2022/10/28 09:30:54;;;;;;;0.85;0.70;;;;;;;;;;7396289;19;20139;-91
2022/10/28 09:33:41;;;;;;;0.30;0.30;;;;;;;;;;7391896;19;20145;-90
2022/10/28 09:36:14;;;;;;;0.30;0.30;;;;;;;;;;7393008;19;20152;-91
2022/10/28 09:38:40;;;;;;;0.38;0.38;;;;;;;;;;7387743;19;20193;-90
2022/10/28 09:41:12;;;;;;;1.05;1.05;;;;;;;;;;7391667;19;20510;-92
2022/10/28 09:43:42;;;;;;;0.30;0.30;;;;;;;;;;7390489;19;20125;-89
2022/10/28 09:46:11;;;;;;;0.30;0.30;;;;;;;;;;7389123;19;20152;-93
2022/10/28 09:48:40;;;;;;;0.40;0.40;;;;;;;;;;7387590;19;20164;-90
2022/10/28 09:51:25;;;;;;;1.85;0.85;;;;;;;;;;7390455;19;20173;-91
2022/10/28 09:53:57;;;;;;;0.30;0.30;;;;;;;;;;7393996;19;20148;-90
2022/10/28 09:56:23;;;;;;;0.30;0.30;;;;;;;;;;7389956;19;20660;-90
2022/10/28 09:58:48;;;;;;;0.30;0.30;;;;;;;;;;7395729;19;20206;-90
2022/10/28 10:01:16;;;;;;;0.30;0.30;;;;;;;;;;7399553;19;20925;-90
2022/10/28 10:03:42;;;;;;;0.40;0.40;;;;;;;;;;7396672;19;20129;-89
2022/10/28 10:06:12;;;;;;;0.90;0.75;;;;;;;;;;7396668;19;20156;-89
2022/10/28 10:08:39;;;;;;;1.65;1.58;;;;;;;;;;7396529;19;20175;-90
2022/10/28 10:11:08;;;;;;;0.60;0.60;;;;;;;;;;7394832;19;20563;-90
2022/10/28 10:13:40;;;;;;;0.68;0.68;;;;;;;;;;7395382;19;20494;-90
2022/10/28 10:16:33;;;;;;;0.30;0.30;;;;;;;;;;7395680;19;20491;-90
2022/10/28 10:19:00;;;;;;;0.85;0.85;;;;;;;;;;7394276;19;20176;-90
2022/10/28 10:21:43;;;;;;;0.30;0.30;;;;;;;;;;7396835;19;20129;-90
2022/10/28 10:24:22;;;;;;;0.30;0.30;;;;;;;;;;7404812;19;20501;-90
2022/10/28 10:26:48;;;;;;;0.50;0.50;;;;;;;;;;7401723;19;20156;-90
2022/10/28 10:29:13;;;;;;;0.68;0.68;;;;;;;;;;7402442;19;20166;-91
2022/10/28 10:31:38;;;;;;;0.30;0.30;;;;;;;;;;7404662;19;20149;-90
2022/10/28 10:34:04;;;;;;;0.60;0.60;;;;;;;;;;7402772;19;20221;-92
2022/10/28 10:36:30;;;;;;;1.00;1.00;;;;;;;;;;7409487;19;20164;-92
2022/10/28 10:38:56;;;;;;;0.80;0.80;;;;;;;;;;7426155;19;20188;-94
2022/10/28 10:41:39;;;;;;;0.30;0.30;;;;;;;;;;7430118;19;20129;-91
2022/10/28 10:44:28;;;;;;;0.30;0.30;;;;;;;;;;7430468;19;20141;-92
2022/10/28 10:46:53;;;;;;;0.35;0.35;;;;;;;;;;7405767;19;20144;-90
